Hovedside
METAR-TAF:

METAR-TAF

Lufthavner :

Oslo lufthavn (Gardermoen)

Oslo, Norge

breddegrad: 60-12N, lengdegrad: 011-05E, høyde over havet: 208 m

Gjeldene værobservasjon

Denne rapporten ble laget for 23 minutter siden, klokken 14:20 UTC
Vind 5 kt fra Vest, skiftende mellom Sørvest og Nord-nordvest
Temperatur 23°C
Luftfuktighet 31%
Trykk 1011 hPa
Sikt 10 km eller mer
ingen skyer under 1500 m og ingen bygeskyer

METAR: ENGM 191420Z 27005KT 220V330 CAVOK 23/05 Q1011 NOSIG

Tid: 16:43 (14:43 UTC)

Varsel

Denne rapporten ble laget for 1 time og 54 minutter siden, klokken 12:49 UTC
Varsel gyldig fra 19. klokken 12 UTC til 20. klokken 12 UTC
Vind 7 kt fra Vest-nordvest
Sikt 10 km eller mer
ingen skyer under 1500 m og ingen bygeskyer
Blir
fra 20. klokken 10 UTC til 20. klokken 12 UTC
Vind 10 kt fra Sør

TAF: ENGM 191249Z 1912/2012 30007KT CAVOK BECMG 2010/2012 17010KT

Værobservasjoner og værvarsel for over 4000 flyplasser (METAR- og TAF-rapporter).

Tilgjengelige stasjoner er representert av de røde og gule prikkene på kartet.

Hold musepekeren over prikken for å se navnet på stasjonen.

Klikk så for å se værobservasjoner og -varsler.

For å forandre kartet kan du klikke på den grønne knappen med svart kryss for å zoome inn, på den grønne knappen med strek for å zoome ut, eller på de grønne pilene for å se tilstøtende kart.


METAR-TAF: